createdAt,value
2018-08-20T00:01:10.185Z,5.30
2018-08-20T00:03:42.661Z,5.57
2018-08-20T00:06:10.942Z,5.60
2018-08-20T00:08:39.990Z,4.97
2018-08-20T00:11:08.244Z,5.23
2018-08-20T00:13:36.433Z,5.77
2018-08-20T00:16:04.650Z,5.60
2018-08-20T00:18:32.801Z,5.10
2018-08-20T00:21:01.010Z,4.87
2018-08-20T00:23:29.264Z,5.00
2018-08-20T00:25:58.862Z,5.13
2018-08-20T00:28:27.861Z,5.60
2018-08-20T00:30:56.084Z,5.60
2018-08-20T00:33:24.689Z,5.23
2018-08-20T00:35:53.757Z,5.50
2018-08-20T00:38:21.974Z,5.80
2018-08-20T00:40:50.173Z,4.80
2018-08-20T00:43:18.402Z,4.83
2018-08-20T00:45:46.761Z,4.77
2018-08-20T00:48:14.960Z,5.70
2018-08-20T00:50:43.226Z,5.23
2018-08-20T00:53:11.443Z,5.40
2018-08-20T00:55:39.631Z,5.07
2018-08-20T00:58:08.535Z,4.90
2018-08-20T01:00:36.746Z,4.93
2018-08-20T01:03:05.041Z,5.53
2018-08-20T01:05:33.181Z,5.07
2018-08-20T01:08:01.362Z,4.70
2018-08-20T01:10:29.611Z,5.50
2018-08-20T01:12:58.365Z,5.40
2018-08-20T01:15:26.554Z,5.17
2018-08-20T01:17:54.861Z,5.30
2018-08-20T01:20:23.053Z,5.50
2018-08-20T01:22:51.285Z,5.43
2018-08-20T01:25:19.495Z,5.87
2018-08-20T01:27:48.649Z,6.20
2018-08-20T01:30:16.967Z,6.00
2018-08-20T01:32:45.173Z,6.00
2018-08-20T01:35:19.636Z,5.97
2018-08-20T01:37:47.850Z,6.23
2018-08-20T01:40:16.038Z,6.10
2018-08-20T01:42:44.222Z,6.20
2018-08-20T01:45:15.415Z,5.87
2018-08-20T01:47:43.614Z,5.80
2018-08-20T01:50:11.854Z,5.77
2018-08-20T01:52:40.081Z,5.57
2018-08-20T01:55:08.442Z,5.00
2018-08-20T01:57:36.637Z,5.67
2018-08-20T02:00:05.602Z,6.00
2018-08-20T02:02:33.816Z,6.17
2018-08-20T02:05:01.979Z,5.50
2018-08-20T02:07:30.187Z,5.73
2018-08-20T02:09:58.442Z,5.37
2018-08-20T02:12:26.846Z,6.60
2018-08-20T02:14:55.857Z,5.70
2018-08-20T02:17:24.105Z,6.30
2018-08-20T02:19:52.290Z,5.90
2018-08-20T02:22:20.460Z,5.60
2018-08-20T02:24:48.782Z,6.20
2018-08-20T02:27:16.986Z,5.73
2018-08-20T02:29:45.143Z,6.50
2018-08-20T02:32:13.335Z,5.50
2018-08-20T02:34:41.577Z,5.47
2018-08-20T02:37:09.820Z,6.10
2018-08-20T02:39:38.742Z,5.83
2018-08-20T02:42:06.930Z,6.43
2018-08-20T02:44:35.090Z,6.43
2018-08-20T02:47:03.347Z,5.70
2018-08-20T02:49:31.569Z,6.57
2018-08-20T02:51:59.740Z,6.57
2018-08-20T02:54:27.927Z,6.33
2018-08-20T02:56:56.173Z,6.00
2018-08-20T02:59:24.365Z,6.13
2018-08-20T03:01:52.558Z,6.03
2018-08-20T03:04:20.754Z,6.70
2018-08-20T03:06:48.963Z,5.67
2018-08-20T03:09:18.009Z,6.43
2018-08-20T03:11:46.706Z,5.97
2018-08-20T03:14:14.892Z,5.70
2018-08-20T03:16:43.105Z,5.97
2018-08-20T03:19:11.301Z,6.63
2018-08-20T03:21:39.457Z,6.10
2018-08-20T03:24:07.691Z,6.27
2018-08-20T03:26:35.854Z,5.80
2018-08-20T03:29:04.132Z,6.43
2018-08-20T03:31:33.258Z,6.10
2018-08-20T03:34:01.447Z,6.77
2018-08-20T03:36:34.549Z,6.53
2018-08-20T03:39:03.038Z,5.90
2018-08-20T03:41:31.215Z,6.50
2018-08-20T03:43:59.433Z,6.40
2018-08-20T03:46:27.618Z,7.07
2018-08-20T03:48:55.858Z,5.87
2018-08-20T03:51:24.034Z,6.50
2018-08-20T03:53:52.249Z,5.93
2018-08-20T03:56:20.462Z,6.27
2018-08-20T03:58:49.289Z,5.97
2018-08-20T04:01:17.490Z,6.13
2018-08-20T04:03:45.685Z,5.90
2018-08-20T04:06:13.862Z,6.23
2018-08-20T04:08:42.298Z,6.43
2018-08-20T04:11:10.521Z,6.40
2018-08-20T04:13:38.673Z,6.43
2018-08-20T04:16:06.991Z,6.30
2018-08-20T04:18:35.178Z,6.20
2018-08-20T04:21:03.769Z,7.10
2018-08-20T04:23:32.029Z,7.03
2018-08-20T04:26:02.029Z,6.87
2018-08-20T04:28:36.616Z,8.43
2018-08-20T04:31:04.810Z,6.47
2018-08-20T04:33:33.011Z,5.90
2018-08-20T04:36:01.221Z,6.13
2018-08-20T04:38:29.442Z,6.30
2018-08-20T04:40:58.561Z,6.83
2018-08-20T04:43:26.746Z,7.73
2018-08-20T04:45:54.928Z,6.50
2018-08-20T04:48:23.118Z,7.30
2018-08-20T04:50:51.487Z,6.93
2018-08-20T04:53:19.562Z,7.47
2018-08-20T04:55:47.725Z,6.87
2018-08-20T04:58:15.962Z,6.63
2018-08-20T05:00:44.217Z,6.27
2018-08-20T05:03:15.977Z,6.00
2018-08-20T05:05:44.271Z,6.97
2018-08-20T05:08:12.454Z,6.50
2018-08-20T05:10:40.619Z,6.07
2018-08-20T05:13:09.246Z,6.10
2018-08-20T05:15:37.447Z,7.07
2018-08-20T05:18:05.810Z,5.70
2018-08-20T05:20:34.017Z,5.80
2018-08-20T05:23:02.954Z,6.70
2018-08-20T05:25:31.126Z,6.53
2018-08-20T05:27:59.666Z,6.57
2018-08-20T05:30:27.822Z,6.60
2018-08-20T05:32:56.006Z,5.63
2018-08-20T05:35:24.187Z,6.10
2018-08-20T05:37:52.374Z,6.33
2018-08-20T05:40:20.615Z,4.77
2018-08-20T05:42:48.869Z,6.30
2018-08-20T05:45:17.078Z,5.97
2018-08-20T05:47:45.279Z,5.23
2018-08-20T05:50:13.434Z,5.67
2018-08-20T05:52:41.720Z,5.47
2018-08-20T05:55:09.778Z,5.90
2018-08-20T05:57:37.958Z,5.30
2018-08-20T06:00:10.778Z,5.67
2018-08-20T06:02:38.963Z,5.33
2018-08-20T06:05:07.138Z,5.22
2018-08-20T06:07:35.460Z,5.30
2018-08-20T06:10:03.946Z,4.67
2018-08-20T06:12:32.535Z,5.08
2018-08-20T06:15:00.705Z,5.00
2018-08-20T06:17:28.849Z,4.70
2018-08-20T06:19:57.046Z,4.28
2018-08-20T06:22:25.256Z,4.72
2018-08-20T06:24:53.410Z,4.20
2018-08-20T06:27:21.569Z,4.80
2018-08-20T06:29:49.750Z,4.90
2018-08-20T06:32:17.917Z,4.45
2018-08-20T06:34:46.069Z,4.40
2018-08-20T06:37:14.215Z,4.78
2018-08-20T06:39:44.118Z,4.30
2018-08-20T06:42:12.322Z,4.60
2018-08-20T06:44:41.659Z,4.50
2018-08-20T06:47:09.801Z,4.28
2018-08-20T06:49:38.026Z,4.45
2018-08-20T06:52:06.350Z,4.45
2018-08-20T06:54:34.542Z,4.35
2018-08-20T06:57:02.993Z,4.60
2018-08-20T06:59:31.134Z,4.53
2018-08-20T07:01:59.310Z,4.72
2018-08-20T07:04:27.527Z,4.78
2018-08-20T07:06:55.688Z,5.05
2018-08-20T07:09:23.905Z,4.50
2018-08-20T07:11:52.182Z,4.45
2018-08-20T07:14:20.312Z,4.92
2018-08-20T07:16:48.576Z,4.45
2018-08-20T07:19:16.801Z,4.80
2018-08-20T07:21:44.982Z,5.15
2018-08-20T07:24:13.492Z,4.97
2018-08-20T07:26:41.892Z,5.05
2018-08-20T07:29:10.122Z,4.30
2018-08-20T07:31:38.890Z,5.15
2018-08-20T07:34:07.096Z,4.90
2018-08-20T07:36:35.342Z,5.33
2018-08-20T07:39:04.722Z,5.55
2018-08-20T07:41:33.193Z,4.70
2018-08-20T07:44:01.497Z,4.55
2018-08-20T07:46:29.697Z,4.72
2018-08-20T07:48:59.353Z,4.67
2018-08-20T07:51:27.506Z,4.97
2018-08-20T07:53:56.009Z,4.87
2018-08-20T07:56:24.170Z,4.78
2018-08-20T07:58:52.335Z,4.37
2018-08-20T08:01:20.525Z,5.33
2018-08-20T08:03:48.710Z,5.70
2018-08-20T08:06:16.933Z,4.92
2018-08-20T08:08:46.232Z,5.47
2018-08-20T08:11:14.281Z,5.30
2018-08-20T08:13:44.375Z,5.35
2018-08-20T08:16:12.566Z,5.37
2018-08-20T08:18:40.762Z,5.65
2018-08-20T08:21:08.962Z,5.45
2018-08-20T08:23:38.097Z,6.28
2018-08-20T08:26:06.542Z,5.03
2018-08-20T08:28:34.722Z,5.08
2018-08-20T08:31:02.908Z,5.05
2018-08-20T08:33:31.096Z,5.40
2018-08-20T08:35:59.245Z,5.25
2018-08-20T08:38:27.801Z,4.97
2018-08-20T08:40:56.029Z,5.03
2018-08-20T08:43:24.222Z,5.17
2018-08-20T08:45:52.409Z,5.60
2018-08-20T08:48:20.626Z,5.33
2018-08-20T08:50:49.636Z,4.80
2018-08-20T08:53:19.251Z,4.90
2018-08-20T08:55:47.446Z,4.97
2018-08-20T08:58:15.645Z,4.90
2018-08-20T09:00:43.972Z,5.22
2018-08-20T09:03:11.979Z,5.75
2018-08-20T09:05:40.166Z,5.53
2018-08-20T09:08:08.334Z,5.85
2018-08-20T09:10:36.481Z,6.03
2018-08-20T09:13:04.671Z,5.28
2018-08-20T09:15:32.893Z,5.92
2018-08-20T09:18:01.087Z,5.67
2018-08-20T09:20:29.266Z,6.17
2018-08-20T09:22:57.461Z,5.97
2018-08-20T09:25:25.677Z,6.58
2018-08-20T09:27:53.890Z,5.92
2018-08-20T09:30:23.397Z,6.25
2018-08-20T09:32:51.606Z,5.40
2018-08-20T09:35:19.817Z,5.83
2018-08-20T09:37:48.009Z,6.05
2018-08-20T09:40:16.908Z,5.42
2018-08-20T09:42:46.922Z,5.45
2018-08-20T09:45:15.132Z,5.85
2018-08-20T09:47:43.458Z,5.50
2018-08-20T09:50:15.171Z,5.60
2018-08-20T09:52:45.094Z,5.58
2018-08-20T09:55:13.253Z,5.60
2018-08-20T09:57:41.455Z,5.47
2018-08-20T10:00:13.077Z,5.83
2018-08-20T10:02:41.930Z,5.28
2018-08-20T10:05:10.118Z,5.45
2018-08-20T10:07:38.643Z,5.42
2018-08-20T10:10:06.835Z,5.87
2018-08-20T10:12:34.983Z,5.60
2018-08-20T10:15:03.158Z,4.85
2018-08-20T10:17:31.363Z,5.58
2018-08-20T10:19:59.529Z,5.17
2018-08-20T10:22:27.750Z,4.97
2018-08-20T10:24:55.993Z,5.12
2018-08-20T10:27:24.209Z,5.10
2018-08-20T10:29:52.414Z,4.70
2018-08-20T10:32:20.561Z,4.85
2018-08-20T10:34:48.749Z,4.80
2018-08-20T10:37:16.950Z,5.03
2018-08-20T10:39:45.163Z,4.67
2018-08-20T10:42:13.442Z,5.22
2018-08-20T10:44:46.946Z,4.62
2018-08-20T10:47:15.854Z,5.28
2018-08-20T10:49:44.027Z,5.45
2018-08-20T10:52:12.421Z,4.08
2018-08-20T10:54:40.706Z,4.30
2018-08-20T10:57:09.146Z,4.53
2018-08-20T10:59:38.274Z,4.58
2018-08-20T11:02:08.793Z,4.35
2018-08-20T11:04:36.971Z,4.25
2018-08-20T11:07:05.651Z,4.17
2018-08-20T11:09:33.879Z,4.28
2018-08-20T11:12:02.006Z,4.08
2018-08-20T11:14:30.854Z,4.50
2018-08-20T11:16:59.062Z,5.12
2018-08-20T11:19:27.262Z,4.62
2018-08-20T11:21:55.442Z,4.58
2018-08-20T11:24:23.646Z,4.37
2018-08-20T11:26:51.977Z,4.35
2018-08-20T11:29:20.381Z,4.65
2018-08-20T11:31:48.595Z,5.30
2018-08-20T11:34:16.888Z,4.30
2018-08-20T11:36:45.117Z,4.72
2018-08-20T11:39:13.173Z,4.90
2018-08-20T11:41:41.338Z,4.33
2018-08-20T11:44:09.583Z,4.75
2018-08-20T11:46:37.789Z,4.37
2018-08-20T11:49:07.083Z,4.20
2018-08-20T11:51:35.220Z,4.25
2018-08-20T11:54:03.393Z,4.50
2018-08-20T11:56:31.633Z,4.00
2018-08-20T11:58:59.889Z,4.62
2018-08-20T12:01:28.072Z,4.72
2018-08-20T12:03:56.337Z,4.10
2018-08-20T12:06:25.737Z,4.60
2018-08-20T12:08:53.989Z,4.05
2018-08-20T12:11:22.229Z,3.95
2018-08-20T12:13:50.693Z,3.80
2018-08-20T12:16:19.712Z,3.70
2018-08-20T12:18:47.863Z,3.75
2018-08-20T12:21:16.037Z,3.75
2018-08-20T12:23:44.255Z,4.00
2018-08-20T12:26:12.451Z,4.00
2018-08-20T12:28:40.851Z,4.22
2018-08-20T12:31:09.378Z,3.98
2018-08-20T12:33:37.778Z,3.52
2018-08-20T12:36:06.054Z,3.33
2018-08-20T12:38:34.398Z,3.17
2018-08-20T12:41:02.625Z,3.10
2018-08-20T12:43:30.849Z,3.47
2018-08-20T12:45:59.377Z,3.22
2018-08-20T12:48:27.571Z,3.27
2018-08-20T12:50:55.773Z,3.27
2018-08-20T12:53:24.765Z,3.77
2018-08-20T12:55:53.317Z,3.72
2018-08-20T12:58:21.568Z,3.75
2018-08-20T13:00:49.780Z,3.05
2018-08-20T13:03:17.930Z,3.42
2018-08-20T13:05:46.180Z,3.20
2018-08-20T13:08:14.386Z,3.27
2018-08-20T13:10:42.579Z,3.08
2018-08-20T13:13:11.844Z,3.12
2018-08-20T13:15:40.053Z,2.85
2018-08-20T13:18:08.214Z,2.95
2018-08-20T13:20:36.428Z,2.80
2018-08-20T13:23:04.915Z,3.40
2018-08-20T13:25:33.117Z,2.72
2018-08-20T13:28:01.334Z,2.85
2018-08-20T13:30:29.541Z,2.75
2018-08-20T13:32:57.950Z,2.55
2018-08-20T13:35:26.150Z,2.75
2018-08-20T13:37:54.343Z,2.45
2018-08-20T13:40:22.654Z,2.87
2018-08-20T13:42:51.448Z,2.40
2018-08-20T13:45:19.629Z,2.25
2018-08-20T13:47:47.810Z,2.50
2018-08-20T13:50:18.148Z,2.50
2018-08-20T13:52:47.373Z,3.20
2018-08-20T13:55:15.584Z,2.42
2018-08-20T13:57:47.811Z,2.42
2018-08-20T14:00:17.550Z,2.42
2018-08-20T14:02:45.742Z,2.65
2018-08-20T14:05:14.930Z,2.70
2018-08-20T14:07:43.155Z,2.83
2018-08-20T14:10:11.954Z,2.58
2018-08-20T14:12:40.873Z,3.00
2018-08-20T14:15:10.888Z,3.30
2018-08-20T14:17:39.855Z,2.90
2018-08-20T14:20:10.086Z,2.87
2018-08-20T14:22:38.302Z,3.15
2018-08-20T14:25:06.681Z,2.60
2018-08-20T14:27:34.801Z,3.30
2018-08-20T14:30:05.398Z,3.20
2018-08-20T14:32:33.765Z,2.80
2018-08-20T14:35:01.965Z,3.17
2018-08-20T14:37:30.136Z,2.60
2018-08-20T14:39:58.321Z,2.40
2018-08-20T14:42:26.587Z,2.92
2018-08-20T14:44:54.797Z,2.65
2018-08-20T14:47:22.986Z,3.00
2018-08-20T14:49:51.505Z,2.70
2018-08-20T14:52:19.666Z,2.42
2018-08-20T14:54:47.854Z,2.20
2018-08-20T14:57:16.074Z,2.62
2018-08-20T14:59:44.306Z,1.70
2018-08-20T15:02:12.513Z,1.85
2018-08-20T15:04:40.739Z,1.87
2018-08-20T15:07:09.850Z,1.62
2018-08-20T15:09:38.158Z,1.95
2018-08-20T15:12:06.518Z,2.02
2018-08-20T15:14:34.713Z,2.15
2018-08-20T15:17:03.034Z,1.80
2018-08-20T15:19:31.188Z,1.85
2018-08-20T15:21:59.326Z,1.70
2018-08-20T15:24:27.511Z,1.87
2018-08-20T15:26:55.742Z,1.57
2018-08-20T15:29:23.930Z,1.67
2018-08-20T15:31:52.967Z,2.00
2018-08-20T15:34:21.169Z,2.00
2018-08-20T15:36:49.370Z,2.00
2018-08-20T15:39:17.542Z,1.52
2018-08-20T15:41:45.714Z,1.40
2018-08-20T15:44:13.931Z,1.40
2018-08-20T15:46:42.135Z,1.40
2018-08-20T15:49:10.335Z,1.70
2018-08-20T15:51:38.609Z,1.52
2018-08-20T15:54:06.983Z,1.52
2018-08-20T15:56:35.209Z,1.35
2018-08-20T15:59:03.373Z,1.70
2018-08-20T16:01:31.530Z,1.75
2018-08-20T16:03:59.754Z,1.80
2018-08-20T16:06:29.343Z,1.70
2018-08-20T16:08:57.808Z,2.15
2018-08-20T16:11:25.981Z,2.15
2018-08-20T16:13:54.159Z,1.90
2018-08-20T16:16:22.621Z,2.22
2018-08-20T16:18:50.763Z,2.62
2018-08-20T16:21:18.962Z,2.90
2018-08-20T16:23:47.114Z,2.52
2018-08-20T16:26:15.504Z,2.72
2018-08-20T16:28:43.795Z,2.52
2018-08-20T16:31:12.025Z,2.60
2018-08-20T16:33:40.234Z,2.40
2018-08-20T16:36:08.403Z,2.47
2018-08-20T16:38:36.615Z,2.50
2018-08-20T16:41:04.933Z,2.33
2018-08-20T16:43:33.097Z,2.47
2018-08-20T16:46:01.262Z,2.30
2018-08-20T16:48:29.475Z,2.05
2018-08-20T16:50:57.651Z,2.33
2018-08-20T16:53:26.734Z,2.50
2018-08-20T16:55:55.026Z,2.00
2018-08-20T16:58:23.195Z,2.67
2018-08-20T17:00:52.075Z,2.10
2018-08-20T17:03:20.238Z,2.67
2018-08-20T17:05:49.674Z,2.35
2018-08-20T17:08:24.933Z,2.27
2018-08-20T17:10:53.114Z,2.62
2018-08-20T17:13:21.321Z,2.90
2018-08-20T17:15:49.526Z,2.70
2018-08-20T17:18:17.722Z,3.00
2018-08-20T17:20:46.125Z,2.75
2018-08-20T17:23:19.851Z,2.65
2018-08-20T17:25:48.486Z,2.45
2018-08-20T17:28:21.319Z,2.85
2018-08-20T17:30:53.186Z,3.05
2018-08-20T17:33:21.442Z,2.87
2018-08-20T17:35:49.691Z,2.80
2018-08-20T17:38:18.182Z,2.85
2018-08-20T17:40:46.410Z,2.45
2018-08-20T17:43:14.606Z,2.50
2018-08-20T17:45:42.838Z,2.58
2018-08-20T17:48:17.822Z,2.52
2018-08-20T17:50:45.991Z,2.17
2018-08-20T17:53:14.186Z,2.27
2018-08-20T17:55:42.382Z,2.30
2018-08-20T17:58:10.800Z,2.52
2018-08-20T18:00:44.600Z,2.02
2018-08-20T18:03:20.027Z,1.92
2018-08-20T18:05:54.244Z,1.67
2018-08-20T18:08:23.574Z,1.80
2018-08-20T18:10:51.989Z,1.85
2018-08-20T18:13:32.789Z,1.80
2018-08-20T18:16:02.414Z,1.90
2018-08-20T18:18:31.233Z,1.70
2018-08-20T18:20:59.396Z,1.80
2018-08-20T18:23:28.093Z,2.27
2018-08-20T18:25:56.214Z,2.20
2018-08-20T18:28:24.442Z,1.87
2018-08-20T18:30:58.255Z,2.17
2018-08-20T18:33:27.801Z,2.25
2018-08-20T18:35:56.749Z,2.02
2018-08-20T18:38:24.894Z,2.40
2018-08-20T18:40:53.486Z,2.02
2018-08-20T18:43:21.786Z,2.40
2018-08-20T18:45:49.930Z,2.30
2018-08-20T18:48:24.607Z,2.67
2018-08-20T18:50:52.790Z,2.52
2018-08-20T18:53:25.197Z,2.40
2018-08-20T18:56:06.298Z,2.30
2018-08-20T18:58:34.488Z,2.80
2018-08-20T19:01:02.670Z,2.65
2018-08-20T19:03:36.329Z,2.15
2018-08-20T19:06:04.630Z,2.55
2018-08-20T19:08:33.479Z,2.50
2018-08-20T19:11:01.792Z,2.40
2018-08-20T19:13:29.984Z,2.83
2018-08-20T19:15:58.158Z,2.72
2018-08-20T19:18:34.375Z,3.05
2018-08-20T19:21:02.610Z,2.40
2018-08-20T19:23:30.825Z,2.27
2018-08-20T19:25:58.985Z,3.20
2018-08-20T19:28:27.126Z,2.95
2018-08-20T19:30:56.160Z,3.15
2018-08-20T19:33:27.910Z,2.65
2018-08-20T19:35:56.412Z,2.87
2018-08-20T19:38:24.551Z,2.80
2018-08-20T19:41:14.860Z,3.55
2018-08-20T19:43:50.304Z,2.80
2018-08-20T19:46:27.725Z,3.30
2018-08-20T19:49:01.281Z,2.50
2018-08-20T19:51:29.465Z,3.45
2018-08-20T19:53:57.637Z,3.27
2018-08-20T19:56:25.818Z,3.10
2018-08-20T19:58:53.981Z,3.27
2018-08-20T20:01:22.161Z,2.90
2018-08-20T20:03:50.598Z,3.20
2018-08-20T20:06:18.917Z,3.00
2018-08-20T20:08:47.121Z,3.00
2018-08-20T20:11:21.861Z,2.90
2018-08-20T20:13:58.335Z,3.05
2018-08-20T20:16:26.671Z,3.20
2018-08-20T20:18:54.811Z,3.45
2018-08-20T20:21:23.272Z,3.25
2018-08-20T20:23:51.475Z,3.37
2018-08-20T20:26:19.637Z,3.45
2018-08-20T20:28:47.953Z,3.22
2018-08-20T20:31:35.748Z,3.02
2018-08-20T20:34:03.972Z,3.08
2018-08-20T20:36:32.667Z,2.87
2018-08-20T20:39:01.355Z,3.10
2018-08-20T20:41:29.549Z,2.20
2018-08-20T20:43:57.750Z,3.08
2018-08-20T20:46:25.995Z,2.90
2018-08-20T20:48:54.134Z,3.33
2018-08-20T20:51:22.324Z,2.95
2018-08-20T20:53:50.521Z,2.80
2018-08-20T21:19:20.678Z,2.80
2018-08-20T21:21:48.873Z,2.87
2018-08-20T21:24:17.021Z,2.75
2018-08-20T21:26:45.829Z,2.60
2018-08-20T21:29:14.027Z,2.67
2018-08-20T21:31:47.521Z,2.70
2018-08-20T21:34:15.707Z,2.77
2018-08-20T21:36:43.866Z,2.58
2018-08-20T21:39:12.053Z,2.60
2018-08-20T21:41:40.254Z,2.83
2018-08-20T21:44:08.425Z,2.60
2018-08-20T21:46:36.615Z,3.10
2018-08-20T21:49:05.362Z,2.67
2018-08-20T21:51:41.150Z,2.75
2018-08-20T21:54:09.334Z,2.98
2018-08-20T21:56:50.464Z,2.58
2018-08-20T21:59:19.350Z,3.22
2018-08-20T22:01:49.957Z,3.10
2018-08-20T22:04:18.102Z,3.00
2018-08-20T22:06:46.441Z,3.05
2018-08-20T22:09:14.625Z,2.65
2018-08-20T22:11:42.809Z,3.10
2018-08-20T22:14:10.973Z,2.62
2018-08-20T22:16:39.170Z,3.05
2018-08-20T22:19:07.320Z,2.80
2018-08-20T22:21:35.547Z,3.20
2018-08-20T22:24:04.102Z,3.05
2018-08-20T22:26:38.639Z,2.65
2018-08-20T22:29:06.774Z,2.70
2018-08-20T22:31:36.160Z,2.77
2018-08-20T22:34:05.389Z,2.55
2018-08-20T22:36:33.717Z,2.62
2018-08-20T22:39:03.925Z,3.08
2018-08-20T22:41:32.286Z,2.60
2018-08-20T22:44:00.425Z,2.60
2018-08-20T22:46:28.627Z,2.60
2018-08-20T22:48:58.089Z,2.90
2018-08-20T22:51:27.454Z,3.00
2018-08-20T22:53:59.197Z,3.27
2018-08-20T22:56:31.925Z,2.83
2018-08-20T22:59:05.800Z,3.20
2018-08-20T23:01:33.954Z,3.17
2018-08-20T23:04:02.202Z,3.85
2018-08-20T23:06:30.638Z,3.30
2018-08-20T23:08:58.923Z,3.37
2018-08-20T23:11:40.966Z,3.58
2018-08-20T23:14:10.969Z,3.08
2018-08-20T23:16:39.307Z,3.80
2018-08-20T23:19:07.934Z,3.27
2018-08-20T23:21:40.803Z,3.35
2018-08-20T23:24:09.240Z,3.10
2018-08-20T23:26:37.497Z,3.40
2018-08-20T23:29:05.772Z,3.37
2018-08-20T23:31:34.066Z,3.27
2018-08-20T23:34:02.253Z,3.30
2018-08-20T23:36:30.474Z,3.35
2018-08-20T23:38:58.673Z,3.55
2018-08-20T23:41:26.834Z,3.20
2018-08-20T23:43:58.925Z,3.30
2018-08-20T23:46:35.535Z,3.33
2018-08-20T23:49:03.873Z,2.98
2018-08-20T23:51:32.102Z,2.90
2018-08-20T23:54:00.633Z,3.50
2018-08-20T23:56:28.775Z,3.25
2018-08-20T23:58:57.154Z,3.50
